Time;durP1;ratioP1;P1;durP2;ratioP2;P2;SDS_P1;SDS_P2;PMS_P1;PMS_P2;Temp;Humidity;BMP_temperature;BMP_pressure;BME280_temperature;BME280_humidity;BME280_pressure;Samples;Min_cycle;Max_cycle;Signal;HPM_P1;HPM_P2
2021/10/25 00:02:19;;;;;;;0.40;0.30;;;5.60;99.90;;;;;;5089767;28;20394;-69
2021/10/25 00:04:44;;;;;;;0.40;0.20;;;5.50;99.90;;;;;;5089681;28;20410;-70
2021/10/25 00:07:10;;;;;;;0.40;0.20;;;5.60;99.90;;;;;;5090884;28;20410;-68
2021/10/25 00:09:36;;;;;;;1.40;1.10;;;5.60;99.90;;;;;;5090315;28;20376;-68
2021/10/25 00:12:02;;;;;;;0.40;0.20;;;5.60;99.90;;;;;;5089536;28;20396;-68
2021/10/25 00:14:27;;;;;;;0.40;0.20;;;5.50;99.90;;;;;;5090502;28;20431;-68
2021/10/25 00:16:53;;;;;;;0.40;0.20;;;5.50;99.90;;;;;;5089489;28;20416;-68
2021/10/25 00:19:19;;;;;;;0.40;0.20;;;5.50;99.90;;;;;;5090310;28;20374;-68
2021/10/25 00:21:46;;;;;;;0.40;0.20;;;5.50;99.90;;;;;;5089653;28;20789;-70
2021/10/25 00:24:12;;;;;;;0.40;0.20;;;5.40;99.90;;;;;;5089795;28;20382;-68
2021/10/25 00:26:37;;;;;;;0.40;0.20;;;5.40;99.90;;;;;;5089743;28;20440;-68
2021/10/25 00:29:03;;;;;;;0.40;0.20;;;5.40;99.90;;;;;;5093088;28;20394;-68
2021/10/25 00:31:29;;;;;;;0.40;0.20;;;5.50;99.90;;;;;;5093624;28;20412;-68
2021/10/25 00:33:55;;;;;;;0.40;0.20;;;5.50;99.90;;;;;;5092927;28;20385;-68
2021/10/25 00:36:21;;;;;;;0.40;0.20;;;5.50;99.90;;;;;;5093806;28;20722;-68
2021/10/25 00:38:47;;;;;;;0.40;0.30;;;5.50;99.90;;;;;;5093053;28;20417;-69
2021/10/25 00:41:13;;;;;;;0.40;0.20;;;5.50;99.90;;;;;;5093577;28;20379;-68
2021/10/25 00:43:39;;;;;;;0.40;0.20;;;5.50;99.90;;;;;;5092358;28;20831;-68
2021/10/25 00:46:08;;;;;;;0.40;0.20;;;5.60;99.90;;;;;;5092681;28;20401;-68
2021/10/25 00:48:34;;;;;;;0.40;0.20;;;5.60;99.90;;;;;;5093352;28;20382;-68
2021/10/25 00:51:01;;;;;;;0.40;0.20;;;5.60;99.90;;;;;;5092720;28;20421;-68
2021/10/25 00:53:27;;;;;;;0.40;0.20;;;5.70;99.90;;;;;;5092901;28;20485;-68
2021/10/25 00:55:53;;;;;;;0.40;0.20;;;5.70;99.90;;;;;;5092601;28;20382;-68
2021/10/25 00:58:18;;;;;;;0.40;0.20;;;5.70;99.90;;;;;;5092718;28;20469;-68
2021/10/25 01:00:44;;;;;;;0.40;0.20;;;5.60;99.90;;;;;;5093066;28;20374;-68
2021/10/25 01:03:10;;;;;;;0.40;0.30;;;5.60;99.90;;;;;;5092573;28;20386;-68
2021/10/25 01:05:36;;;;;;;0.40;0.20;;;5.60;99.90;;;;;;5093237;28;20913;-68
2021/10/25 01:08:03;;;;;;;0.40;0.30;;;5.50;99.90;;;;;;5092295;28;20418;-69
2021/10/25 01:10:32;;;;;;;0.40;0.20;;;5.50;99.90;;;;;;5093247;28;20378;-68
2021/10/25 01:12:59;;;;;;;0.40;0.20;;;5.50;99.90;;;;;;5092325;28;20429;-68
2021/10/25 01:15:26;;;;;;;0.40;0.20;;;5.60;99.90;;;;;;5092705;28;20412;-68
2021/10/25 01:17:59;;;;;;;0.40;0.20;;;5.60;99.90;;;;;;5091924;28;20494;-68
2021/10/25 01:20:27;;;;;;;0.40;0.30;;;5.60;99.90;;;;;;5092446;28;20794;-68
2021/10/25 01:22:54;;;;;;;0.40;0.20;;;5.70;99.90;;;;;;5090642;28;20452;-69
2021/10/25 01:25:21;;;;;;;0.50;0.50;;;5.70;99.90;;;;;;5092500;28;20424;-68
2021/10/25 01:27:47;;;;;;;0.40;0.20;;;5.70;99.90;;;;;;5091204;28;20867;-70
2021/10/25 01:30:13;;;;;;;0.40;0.20;;;5.60;99.90;;;;;;5090872;28;20382;-68
2021/10/25 01:32:40;;;;;;;0.40;0.20;;;5.70;99.90;;;;;;5092682;28;20397;-68
2021/10/25 01:35:06;;;;;;;0.40;0.20;;;5.60;99.90;;;;;;5091430;28;20390;-68
2021/10/25 01:37:32;;;;;;;0.40;0.30;;;5.60;99.90;;;;;;5092403;28;20374;-68
2021/10/25 01:39:57;;;;;;;0.40;0.20;;;5.60;99.90;;;;;;5090552;28;20737;-68
2021/10/25 01:42:23;;;;;;;0.40;0.30;;;5.50;99.90;;;;;;5092214;28;20888;-68
2021/10/25 01:44:49;;;;;;;0.40;0.20;;;5.50;99.90;;;;;;5091314;28;20406;-70
2021/10/25 01:47:15;;;;;;;0.40;0.20;;;5.50;99.90;;;;;;5091669;28;20386;-68
2021/10/25 01:49:40;;;;;;;0.40;0.20;;;5.60;99.90;;;;;;5092056;28;20374;-68
2021/10/25 01:52:07;;;;;;;0.90;0.60;;;5.60;99.90;;;;;;5090755;28;20402;-68
2021/10/25 01:54:33;;;;;;;0.40;0.30;;;5.60;99.90;;;;;;5091698;28;20976;-68
2021/10/25 01:56:58;;;;;;;0.40;0.20;;;5.70;99.90;;;;;;5091060;28;20385;-68
2021/10/25 01:59:24;;;;;;;0.40;0.20;;;5.60;99.90;;;;;;5092300;28;20900;-68
2021/10/25 02:01:50;;;;;;;0.40;0.20;;;5.60;99.90;;;;;;5091871;28;20785;-70
2021/10/25 02:04:15;;;;;;;0.40;0.20;;;5.60;99.90;;;;;;5091136;28;20875;-68
2021/10/25 02:06:41;;;;;;;0.40;0.20;;;5.60;99.90;;;;;;5091683;28;20816;-68
2021/10/25 02:09:06;;;;;;;0.40;0.20;;;5.70;99.90;;;;;;5089955;28;20382;-68
2021/10/25 02:11:32;;;;;;;0.40;0.20;;;5.60;99.90;;;;;;5091785;28;20374;-68
2021/10/25 02:13:58;;;;;;;0.40;0.22;;;5.70;99.90;;;;;;5090919;28;20439;-68
2021/10/25 02:16:24;;;;;;;0.40;0.20;;;5.70;99.90;;;;;;5091565;28;20458;-68
2021/10/25 02:18:50;;;;;;;0.40;0.20;;;5.70;99.90;;;;;;5091201;28;20478;-69
2021/10/25 02:21:15;;;;;;;0.40;0.20;;;5.60;99.90;;;;;;5091081;28;20381;-68
2021/10/25 02:23:41;;;;;;;0.40;0.30;;;5.60;99.90;;;;;;5091294;28;20385;-67
2021/10/25 02:26:07;;;;;;;0.40;0.20;;;5.70;99.90;;;;;;5090537;28;20505;-68
2021/10/25 02:28:33;;;;;;;0.40;0.20;;;5.70;99.90;;;;;;5091648;28;20747;-68
2021/10/25 02:30:59;;;;;;;0.40;0.20;;;5.70;99.90;;;;;;5089287;28;20401;-68
2021/10/25 02:33:25;;;;;;;0.40;0.20;;;5.70;99.90;;;;;;5091548;28;20486;-68
2021/10/25 02:35:51;;;;;;;0.40;0.20;;;5.70;99.90;;;;;;5091024;28;20477;-69
2021/10/25 02:38:17;;;;;;;0.40;0.25;;;5.60;99.90;;;;;;5090549;28;20896;-68
2021/10/25 02:40:44;;;;;;;0.40;0.20;;;5.70;99.90;;;;;;5091205;28;20389;-68
2021/10/25 02:43:10;;;;;;;0.40;0.20;;;5.70;99.90;;;;;;5090705;28;20389;-68
2021/10/25 02:45:36;;;;;;;0.40;0.20;;;5.70;99.90;;;;;;5091069;28;20405;-68
2021/10/25 02:48:03;;;;;;;0.40;0.20;;;5.70;99.90;;;;;;5090518;28;20485;-68
2021/10/25 02:50:30;;;;;;;0.40;0.20;;;5.80;99.90;;;;;;5090165;28;20378;-68
2021/10/25 02:52:55;;;;;;;0.40;0.20;;;5.80;99.90;;;;;;5090100;28;20708;-70
2021/10/25 02:55:21;;;;;;;0.40;0.20;;;5.90;99.90;;;;;;5089703;28;20443;-68
2021/10/25 02:57:47;;;;;;;0.40;0.20;;;6.00;99.90;;;;;;5090986;28;20378;-68
2021/10/25 03:00:15;;;;;;;0.40;0.20;;;5.90;99.90;;;;;;5090050;28;20952;-68
2021/10/25 03:02:43;;;;;;;0.40;0.20;;;6.00;99.90;;;;;;5090428;28;20408;-68
2021/10/25 03:05:09;;;;;;;0.40;0.30;;;6.10;99.90;;;;;;5089870;28;20409;-68
2021/10/25 03:07:35;;;;;;;0.40;0.27;;;6.10;99.90;;;;;;5090806;28;20374;-68
2021/10/25 03:10:01;;;;;;;0.40;0.20;;;6.20;99.90;;;;;;5089712;28;20885;-68
2021/10/25 03:12:26;;;;;;;0.40;0.22;;;6.30;99.90;;;;;;5090750;28;20374;-68
2021/10/25 03:14:54;;;;;;;0.40;0.20;;;6.20;99.90;;;;;;5090347;28;20421;-68
2021/10/25 03:17:20;;;;;;;0.40;0.20;;;6.20;99.90;;;;;;5088960;28;20454;-68
2021/10/25 03:19:47;;;;;;;0.40;0.30;;;6.10;99.90;;;;;;5089331;28;20912;-68
2021/10/25 03:22:13;;;;;;;0.40;0.30;;;6.20;99.90;;;;;;5089911;28;20603;-68
2021/10/25 03:24:39;;;;;;;0.40;0.20;;;6.10;99.90;;;;;;5089940;28;20875;-68
2021/10/25 03:27:05;;;;;;;0.40;0.20;;;6.00;99.90;;;;;;5089326;28;20389;-68
2021/10/25 03:29:32;;;;;;;0.40;0.20;;;6.10;99.90;;;;;;5090714;28;20528;-67
2021/10/25 03:31:58;;;;;;;0.40;0.20;;;6.10;99.90;;;;;;5089963;28;20382;-70
2021/10/25 03:34:25;;;;;;;0.40;0.20;;;6.00;99.90;;;;;;5090558;28;20386;-68
2021/10/25 03:36:51;;;;;;;0.40;0.20;;;6.10;99.90;;;;;;5090221;28;20382;-68
2021/10/25 03:39:24;;;;;;;0.40;0.30;;;6.00;99.90;;;;;;5089668;28;20484;-68
2021/10/25 03:41:51;;;;;;;0.40;0.30;;;6.00;99.90;;;;;;5088887;28;20390;-68
2021/10/25 03:44:25;;;;;;;0.40;0.20;;;6.10;99.90;;;;;;5089605;28;20749;-68
2021/10/25 03:51:44;;;;;;;0.40;0.20;;;6.10;99.90;;;;;;5089645;28;20947;-68
2021/10/25 03:58:02;;;;;;;0.40;0.20;;;6.20;99.90;;;;;;5090339;28;20827;-69
2021/10/25 04:13:32;;;;;;;0.40;0.20;;;6.50;99.90;;;;;;5094672;28;20881;-69
2021/10/25 04:27:15;;;;;;;0.40;0.20;;;6.60;99.90;;;;;;5069839;28;20384;-70
2021/10/25 04:29:42;;;;;;;0.40;0.20;;;6.70;99.90;;;;;;5095593;28;20426;-70
2021/10/25 04:32:08;;;;;;;0.40;0.20;;;6.60;99.90;;;;;;5092068;28;20920;-69
2021/10/25 04:34:35;;;;;;;0.40;0.20;;;6.60;99.90;;;;;;5086089;28;20417;-71
2021/10/25 04:37:03;;;;;;;0.40;0.20;;;6.50;99.90;;;;;;5081648;28;20394;-71
2021/10/25 04:39:29;;;;;;;0.90;0.70;;;6.40;99.90;;;;;;5080386;28;20374;-70
2021/10/25 04:41:55;;;;;;;0.40;0.20;;;6.40;99.90;;;;;;5080212;28;20877;-70
2021/10/25 04:44:21;;;;;;;0.40;0.20;;;6.40;99.90;;;;;;5076921;28;20393;-70
2021/10/25 04:46:46;;;;;;;0.50;0.50;;;6.30;99.90;;;;;;5082993;28;20377;-68
2021/10/25 04:49:12;;;;;;;0.40;0.20;;;6.40;99.90;;;;;;5093450;28;20386;-69
2021/10/25 04:51:39;;;;;;;0.40;0.40;;;6.40;99.90;;;;;;5093920;28;20888;-69
2021/10/25 04:54:04;;;;;;;0.40;0.30;;;6.40;99.90;;;;;;5092853;28;20380;-68
2021/10/25 04:56:31;;;;;;;0.40;0.20;;;6.40;99.90;;;;;;5093270;28;20392;-68
2021/10/25 04:58:56;;;;;;;1.00;0.50;;;6.40;99.90;;;;;;5093143;28;20485;-68
2021/10/25 05:01:22;;;;;;;0.40;0.30;;;6.40;99.90;;;;;;5092360;28;20429;-68
2021/10/25 05:03:48;;;;;;;0.40;0.20;;;6.30;99.90;;;;;;5093025;28;20390;-68
2021/10/25 05:06:19;;;;;;;0.40;0.30;;;6.40;99.90;;;;;;5092346;28;20409;-68
2021/10/25 05:08:46;;;;;;;0.50;0.50;;;6.40;99.90;;;;;;5093264;28;20386;-69
2021/10/25 05:11:12;;;;;;;0.70;0.70;;;6.30;99.90;;;;;;5091925;28;20378;-68
2021/10/25 05:13:38;;;;;;;0.40;0.20;;;6.30;99.90;;;;;;5091838;28;20749;-68
2021/10/25 05:16:04;;;;;;;0.40;0.20;;;6.30;99.90;;;;;;5092090;28;20789;-68
2021/10/25 05:18:30;;;;;;;0.40;0.20;;;6.30;99.90;;;;;;5091565;28;20878;-69
2021/10/25 05:20:56;;;;;;;0.60;0.60;;;6.20;99.90;;;;;;5091504;28;20379;-68
2021/10/25 05:23:21;;;;;;;0.40;0.20;;;6.20;99.90;;;;;;5092057;28;20382;-69
2021/10/25 05:25:49;;;;;;;0.40;0.20;;;6.20;99.90;;;;;;5091397;28;20413;-69
2021/10/25 05:28:15;;;;;;;0.43;0.35;;;6.10;99.90;;;;;;5091944;28;20390;-70
2021/10/25 05:30:41;;;;;;;0.40;0.20;;;6.10;99.90;;;;;;5092496;28;20408;-70
2021/10/25 05:33:07;;;;;;;0.40;0.20;;;6.00;99.90;;;;;;5092373;28;20390;-70
2021/10/25 05:35:33;;;;;;;0.40;0.40;;;5.90;99.90;;;;;;5092769;28;20383;-70
2021/10/25 05:37:59;;;;;;;0.40;0.30;;;6.00;99.90;;;;;;5092628;28;20761;-69
2021/10/25 05:40:25;;;;;;;0.40;0.20;;;6.00;99.90;;;;;;5092075;28;21033;-69
2021/10/25 05:42:51;;;;;;;0.40;0.30;;;6.00;99.90;;;;;;5092606;28;20382;-69
2021/10/25 05:45:17;;;;;;;0.40;0.30;;;6.00;99.90;;;;;;5091827;28;20414;-69
2021/10/25 05:47:43;;;;;;;0.40;0.20;;;6.10;99.90;;;;;;5092667;28;20869;-70
2021/10/25 05:50:09;;;;;;;0.40;0.20;;;6.10;99.90;;;;;;5091847;28;20378;-69
2021/10/25 05:52:34;;;;;;;0.40;0.40;;;6.10;99.90;;;;;;5092207;28;20763;-70
2021/10/25 05:55:00;;;;;;;0.40;0.20;;;6.10;99.90;;;;;;5092307;28;20390;-70
2021/10/25 05:57:27;;;;;;;0.40;0.20;;;6.20;99.90;;;;;;5091536;28;20378;-69
2021/10/25 05:59:53;;;;;;;0.40;0.20;;;6.30;99.90;;;;;;5091399;28;20889;-70
2021/10/25 06:02:25;;;;;;;0.40;0.20;;;6.30;99.90;;;;;;5091181;28;20405;-70
2021/10/25 06:04:51;;;;;;;0.40;0.20;;;6.30;99.90;;;;;;5092112;28;20459;-69
2021/10/25 06:07:16;;;;;;;0.40;0.25;;;6.20;99.90;;;;;;5091080;28;20391;-69
2021/10/25 06:09:44;;;;;;;0.60;0.50;;;6.10;99.90;;;;;;5092259;28;20397;-70
2021/10/25 06:12:15;;;;;;;0.40;0.20;;;6.00;99.90;;;;;;5093857;28;20386;-69
2021/10/25 06:14:43;;;;;;;0.47;0.47;;;6.00;99.90;;;;;;5092087;28;20427;-68
2021/10/25 06:19:43;;;;;;;0.40;0.30;;;6.10;99.90;;;;;;5092031;28;20374;-68
2021/10/25 06:22:09;;;;;;;0.40;0.20;;;6.00;99.90;;;;;;5090543;28;20370;-69
2021/10/25 06:24:35;;;;;;;0.40;0.20;;;6.10;99.90;;;;;;5091213;28;20413;-69
2021/10/25 06:27:00;;;;;;;0.40;0.20;;;6.10;99.90;;;;;;5091743;28;20477;-68
2021/10/25 06:29:26;;;;;;;0.40;0.20;;;6.00;99.90;;;;;;5090917;28;20374;-69
2021/10/25 06:31:51;;;;;;;0.40;0.20;;;6.10;99.90;;;;;;5090941;28;20468;-68
2021/10/25 06:34:26;;;;;;;0.40;0.20;;;6.10;99.90;;;;;;5090447;28;20378;-68
2021/10/25 06:36:52;;;;;;;0.40;0.20;;;6.20;99.90;;;;;;5091768;28;20439;-68
2021/10/25 06:39:25;;;;;;;0.40;0.30;;;6.20;99.90;;;;;;5090648;28;20723;-69
2021/10/25 06:41:51;;;;;;;0.40;0.20;;;6.30;99.90;;;;;;5091483;28;20417;-69
2021/10/25 06:44:17;;;;;;;0.50;0.50;;;6.30;99.90;;;;;;5090414;28;20374;-69
2021/10/25 06:46:43;;;;;;;0.40;0.22;;;6.30;99.90;;;;;;5090456;28;20389;-69
2021/10/25 06:49:09;;;;;;;0.40;0.20;;;6.30;99.90;;;;;;5090103;28;20831;-70
2021/10/25 06:51:36;;;;;;;0.40;0.20;;;6.30;99.90;;;;;;5090932;28;20405;-69
2021/10/25 06:54:02;;;;;;;0.40;0.20;;;6.40;99.90;;;;;;5091883;28;20408;-69
2021/10/25 06:56:29;;;;;;;0.40;0.22;;;6.50;99.90;;;;;;5087121;28;20473;-70
2021/10/25 06:58:55;;;;;;;0.40;0.20;;;6.50;99.90;;;;;;5111708;28;20376;-69
2021/10/25 07:01:21;;;;;;;0.40;0.20;;;6.50;99.90;;;;;;5110066;28;20376;-70
2021/10/25 07:03:46;;;;;;;0.40;0.20;;;6.50;99.90;;;;;;5110849;28;20372;-70
2021/10/25 07:06:16;;;;;;;0.40;0.30;;;6.50;99.90;;;;;;5110710;28;20400;-70
2021/10/25 07:08:42;;;;;;;0.40;0.20;;;6.70;99.90;;;;;;5111304;28;20399;-70
2021/10/25 07:11:10;;;;;;;0.40;0.30;;;6.70;99.90;;;;;;5111192;28;20381;-71
2021/10/25 07:13:37;;;;;;;0.40;0.20;;;6.80;99.90;;;;;;5111589;28;20369;-70
2021/10/25 07:16:10;;;;;;;0.40;0.40;;;6.90;99.90;;;;;;5110270;28;20392;-69
2021/10/25 07:19:07;;;;;;;0.40;0.20;;;7.10;99.90;;;;;;5111654;28;20409;-70
2021/10/25 07:21:40;;;;;;;2.00;0.70;;;7.40;99.90;;;;;;5110320;28;20400;-69
2021/10/25 08:00:07;;;;;;;0.40;0.20;;;9.00;99.90;;;;;;5094019;28;20484;-69
2021/10/25 08:10:51;;;;;;;0.40;0.30;;;9.80;99.90;;;;;;5094594;28;20369;-70
2021/10/25 08:13:18;;;;;;;0.40;0.20;;;9.90;99.90;;;;;;5093831;28;20420;-71
2021/10/25 08:15:47;;;;;;;0.40;0.20;;;10.20;99.90;;;;;;5094792;28;20382;-70
2021/10/25 08:21:00;;;;;;;0.40;0.20;;;10.60;99.90;;;;;;5094432;28;20463;-71
2021/10/25 08:23:26;;;;;;;1.90;1.00;;;10.90;99.90;;;;;;5093938;28;20437;-71
2021/10/25 08:25:52;;;;;;;0.50;0.50;;;11.10;99.90;;;;;;5094559;28;20405;-71
2021/10/25 08:28:18;;;;;;;0.40;0.40;;;11.30;99.90;;;;;;5093675;28;20382;-69
2021/10/25 08:30:44;;;;;;;0.40;0.30;;;11.40;99.90;;;;;;5093049;28;20737;-71
2021/10/25 08:33:29;;;;;;;1.30;0.60;;;11.60;99.90;;;;;;5094430;28;20397;-70
2021/10/25 08:41:05;;;;;;;0.40;0.20;;;11.60;99.90;;;;;;5093949;28;20373;-70
2021/10/25 08:43:33;;;;;;;0.40;0.20;;;11.70;99.90;;;;;;5093464;28;20461;-70
2021/10/25 08:46:02;;;;;;;0.40;0.20;;;11.80;99.90;;;;;;5092663;28;20433;-69
2021/10/25 08:48:30;;;;;;;0.40;0.20;;;11.90;99.90;;;;;;5092736;28;20479;-70
2021/10/25 08:50:56;;;;;;;0.40;0.20;;;11.90;99.90;;;;;;5093191;28;20404;-69
2021/10/25 08:53:23;;;;;;;0.40;0.30;;;11.90;99.90;;;;;;5092675;28;20401;-70
2021/10/25 08:55:51;;;;;;;0.90;0.90;;;12.00;99.90;;;;;;5093143;28;20422;-71
2021/10/25 08:58:17;;;;;;;0.40;0.20;;;12.00;99.90;;;;;;5093151;28;20397;-71
2021/10/25 09:00:53;;;;;;;0.40;0.40;;;12.00;99.90;;;;;;5093932;28;20366;-70
2021/10/25 09:03:22;;;;;;;0.40;0.30;;;12.10;99.90;;;;;;5093171;28;20386;-70
2021/10/25 09:06:01;;;;;;;0.60;0.60;;;12.10;99.90;;;;;;5093726;28;20410;-70
2021/10/25 09:08:27;;;;;;;0.40;0.30;;;12.10;99.90;;;;;;5093040;28;20386;-71
2021/10/25 09:10:53;;;;;;;0.90;0.80;;;12.00;99.90;;;;;;5093616;28;20366;-70
2021/10/25 09:13:26;;;;;;;0.50;0.40;;;12.10;99.90;;;;;;5092717;28;20370;-71
2021/10/25 09:15:55;;;;;;;0.43;0.22;;;12.20;99.90;;;;;;5093576;28;20374;-70
2021/10/25 09:18:27;;;;;;;0.60;0.60;;;12.10;99.90;;;;;;5092783;28;20405;-70
2021/10/25 09:20:56;;;;;;;0.40;0.40;;;12.20;99.90;;;;;;5093573;28;20397;-71
2021/10/25 09:23:28;;;;;;;0.40;0.20;;;12.20;99.90;;;;;;5092609;28;20387;-71
2021/10/25 09:25:59;;;;;;;0.40;0.32;;;12.10;99.90;;;;;;5093308;28;20390;-70
2021/10/25 09:28:29;;;;;;;0.40;0.30;;;12.20;99.90;;;;;;5092495;28;20412;-70
2021/10/25 09:31:01;;;;;;;0.80;0.70;;;12.30;99.90;;;;;;5093333;28;20386;-70
2021/10/25 09:33:39;;;;;;;1.20;1.00;;;12.30;99.90;;;;;;5092255;28;20390;-69
2021/10/25 09:36:13;;;;;;;0.50;0.50;;;12.30;99.90;;;;;;5093189;28;20432;-72
2021/10/25 09:49:17;;;;;;;0.40;0.30;;;12.50;99.90;;;;;;5092040;28;20428;-73
2021/10/25 09:51:57;;;;;;;0.50;0.50;;;12.50;99.90;;;;;;5092396;28;20405;-70
2021/10/25 09:54:24;;;;;;;0.50;0.50;;;12.60;99.90;;;;;;5092065;28;20381;-70
2021/10/25 09:59:48;;;;;;;1.10;0.80;;;12.80;99.90;;;;;;5091397;28;20386;-70
2021/10/25 10:02:15;;;;;;;0.40;0.40;;;12.80;99.90;;;;;;5092576;28;20382;-69
2021/10/25 10:04:44;;;;;;;0.40;0.30;;;12.90;99.90;;;;;;5091654;28;20783;-71
2021/10/25 10:07:18;;;;;;;0.80;0.50;;;12.90;99.90;;;;;;5092428;28;20459;-71
2021/10/25 10:09:47;;;;;;;0.40;0.20;;;13.00;99.90;;;;;;5092561;28;20386;-70
2021/10/25 10:12:19;;;;;;;0.40;0.25;;;13.20;99.90;;;;;;5092428;28;20378;-70
2021/10/25 10:14:50;;;;;;;0.40;0.30;;;13.30;99.90;;;;;;5092057;28;20876;-70
2021/10/25 10:17:44;;;;;;;2.80;0.82;;;13.40;99.90;;;;;;5092262;28;20378;-71
2021/10/25 10:20:16;;;;;;;0.40;0.30;;;13.50;99.90;;;;;;5087946;28;20488;-71
2021/10/25 10:22:48;;;;;;;0.40;0.30;;;13.70;99.90;;;;;;5091956;28;20788;-71
2021/10/25 10:25:29;;;;;;;0.40;0.20;;;13.80;99.90;;;;;;5091875;28;20402;-71
2021/10/25 10:28:04;;;;;;;0.40;0.20;;;13.90;99.90;;;;;;5092098;28;20389;-71
2021/10/25 10:30:30;;;;;;;0.40;0.30;;;13.90;99.90;;;;;;5091378;28;20374;-72
2021/10/25 10:33:01;;;;;;;0.50;0.50;;;14.00;99.90;;;;;;5092208;28;20406;-70
2021/10/25 10:35:38;;;;;;;0.60;0.60;;;14.30;99.90;;;;;;5091327;28;20390;-70
2021/10/25 10:38:04;;;;;;;0.40;0.30;;;14.50;99.90;;;;;;5091916;28;20484;-69
2021/10/25 10:40:38;;;;;;;0.40;0.20;;;14.70;99.60;;;;;;5091155;28;20378;-71
2021/10/25 10:43:09;;;;;;;0.50;0.50;;;15.00;98.90;;;;;;5091607;28;20909;-70
2021/10/25 10:45:35;;;;;;;0.40;0.30;;;15.20;97.60;;;;;;5091122;28;20432;-70
2021/10/25 10:48:03;;;;;;;0.40;0.20;;;15.40;98.50;;;;;;5091878;28;20810;-70
2021/10/25 10:50:41;;;;;;;0.40;0.20;;;15.60;97.70;;;;;;5090990;28;20382;-70
2021/10/25 10:53:11;;;;;;;0.40;0.30;;;15.90;97.20;;;;;;5091456;28;20425;-70
2021/10/25 10:55:42;;;;;;;0.60;0.60;;;16.10;95.70;;;;;;5091176;28;20374;-71
2021/10/25 11:00:44;;;;;;;0.40;0.30;;;17.10;93.40;;;;;;5090706;28;20382;-71
2021/10/25 11:03:28;;;;;;;0.40;0.20;;;17.70;91.70;;;;;;5091325;28;20481;-70
2021/10/25 11:06:02;;;;;;;0.40;0.20;;;18.50;89.10;;;;;;5090099;28;20732;-69
2021/10/25 11:08:30;;;;;;;0.50;0.40;;;19.20;85.60;;;;;;5090865;28;20493;-71
2021/10/25 11:11:20;;;;;;;0.40;0.25;;;19.90;81.40;;;;;;5089414;28;20758;-71
2021/10/25 11:14:14;;;;;;;0.40;0.20;;;20.40;77.70;;;;;;5079262;28;20385;-71
2021/10/25 11:19:11;;;;;;;0.60;0.52;;;20.90;76.00;;;;;;5091362;28;20453;-70
2021/10/25 11:21:48;;;;;;;0.40;0.20;;;21.40;75.20;;;;;;5090597;28;20436;-70
2021/10/25 11:24:16;;;;;;;0.40;0.30;;;21.60;71.80;;;;;;5091110;28;20799;-70
2021/10/25 11:26:47;;;;;;;0.40;0.20;;;21.70;72.10;;;;;;5090328;28;20924;-70
2021/10/25 11:29:20;;;;;;;0.40;0.30;;;21.90;72.10;;;;;;5090922;28;20397;-69
2021/10/25 11:31:54;;;;;;;0.40;0.30;;;21.40;71.70;;;;;;5090522;28;20402;-69
2021/10/25 11:34:24;;;;;;;0.40;0.30;;;20.60;71.60;;;;;;5091322;28;20386;-70
2021/10/25 11:37:18;;;;;;;0.40;0.20;;;20.80;73.20;;;;;;5091119;28;20385;-70
2021/10/25 11:42:21;;;;;;;0.40;0.20;;;21.60;71.00;;;;;;5090884;28;20374;-71
2021/10/25 11:44:50;;;;;;;0.40;0.30;;;21.20;75.50;;;;;;5089177;28;20390;-71
2021/10/25 11:47:26;;;;;;;0.40;0.30;;;21.70;72.00;;;;;;5090862;28;20469;-70
2021/10/25 11:50:05;;;;;;;0.40;0.30;;;21.70;71.60;;;;;;5091005;28;20381;-71
2021/10/25 11:52:35;;;;;;;0.40;0.30;;;22.10;70.70;;;;;;5090266;28;20797;-71
2021/10/25 11:55:02;;;;;;;0.40;0.20;;;22.00;71.50;;;;;;5090565;28;20412;-71
2021/10/25 11:57:28;;;;;;;0.40;0.30;;;22.60;70.50;;;;;;5089669;28;20703;-71
2021/10/25 11:59:57;;;;;;;0.40;0.20;;;21.80;68.60;;;;;;5090799;28;20857;-71
2021/10/25 12:02:24;;;;;;;0.40;0.22;;;23.40;68.60;;;;;;5090578;28;20429;-71
2021/10/25 12:04:50;;;;;;;0.40;0.20;;;22.90;69.00;;;;;;5090998;28;20818;-71
2021/10/25 12:07:17;;;;;;;0.40;0.20;;;22.20;71.50;;;;;;5090726;28;20382;-70
2021/10/25 12:09:43;;;;;;;0.40;0.30;;;22.70;68.80;;;;;;5084573;28;20384;-70
2021/10/25 12:12:16;;;;;;;0.40;0.30;;;22.30;70.50;;;;;;5080583;28;20378;-70
2021/10/25 12:14:45;;;;;;;0.40;0.20;;;22.30;68.10;;;;;;5088504;28;20389;-71
2021/10/25 12:17:20;;;;;;;0.40;0.30;;;22.70;70.60;;;;;;5072321;28;20541;-71
2021/10/25 12:19:46;;;;;;;0.40;0.20;;;23.10;67.40;;;;;;5069527;28;20477;-69
2021/10/25 12:22:17;;;;;;;0.40;0.30;;;22.50;70.20;;;;;;5070228;28;20779;-69
2021/10/25 12:24:45;;;;;;;0.40;0.30;;;22.00;69.80;;;;;;5071841;28;20730;-70
2021/10/25 12:27:21;;;;;;;0.40;0.20;;;21.00;72.90;;;;;;5073394;28;20478;-71
2021/10/25 12:30:05;;;;;;;0.50;0.30;;;20.00;78.40;;;;;;5072978;28;20380;-70
2021/10/25 12:32:31;;;;;;;0.47;0.30;;;20.70;75.80;;;;;;5073070;28;20402;-71
2021/10/25 12:34:58;;;;;;;0.40;0.20;;;20.10;74.20;;;;;;5073781;28;20388;-69
2021/10/25 12:37:25;;;;;;;0.40;0.30;;;20.30;75.70;;;;;;5073497;28;20483;-70
2021/10/25 12:39:53;;;;;;;0.40;0.30;;;19.90;73.40;;;;;;5072871;28;20395;-70
2021/10/25 12:42:19;;;;;;;0.40;0.30;;;20.00;75.80;;;;;;5073274;28;20391;-69
2021/10/25 12:44:48;;;;;;;0.70;0.50;;;20.00;74.30;;;;;;5072420;28;20379;-68
2021/10/25 12:47:19;;;;;;;0.40;0.20;;;20.40;71.70;;;;;;5091488;28;20810;-69
2021/10/25 12:49:54;;;;;;;0.40;0.20;;;20.20;73.50;;;;;;5092915;28;20408;-70
2021/10/25 12:52:21;;;;;;;0.40;0.20;;;20.60;74.70;;;;;;5087610;28;20468;-71
2021/10/25 12:54:47;;;;;;;0.40;0.20;;;20.60;75.90;;;;;;5090214;28;20367;-71
2021/10/25 12:57:19;;;;;;;0.45;0.35;;;21.10;74.30;;;;;;5091031;28;20435;-69
2021/10/25 13:00:15;;;;;;;0.40;0.20;;;20.60;72.50;;;;;;5065184;28;20393;-71
2021/10/25 13:02:52;;;;;;;0.40;0.30;;;19.90;73.00;;;;;;5059354;28;20731;-72
2021/10/25 13:05:24;;;;;;;0.40;0.20;;;20.70;73.00;;;;;;5061149;28;20531;-70
2021/10/25 13:07:55;;;;;;;0.40;0.20;;;20.60;73.20;;;;;;5063119;28;20402;-71
2021/10/25 13:10:29;;;;;;;0.40;0.20;;;20.80;73.80;;;;;;5090178;28;20796;-72
2021/10/25 13:12:57;;;;;;;0.40;0.28;;;21.30;70.80;;;;;;5089967;28;20397;-71
2021/10/25 13:15:24;;;;;;;0.50;0.40;;;20.60;71.60;;;;;;5085598;28;20394;-71
2021/10/25 13:17:54;;;;;;;0.40;0.30;;;21.20;71.30;;;;;;5088407;28;20377;-70
2021/10/25 13:20:22;;;;;;;0.40;0.30;;;21.20;71.20;;;;;;5089416;28;20386;-71
2021/10/25 13:22:59;;;;;;;0.40;0.30;;;20.80;70.60;;;;;;5088865;28;20385;-71
2021/10/25 13:25:26;;;;;;;0.40;0.30;;;20.80;72.00;;;;;;5092555;28;20878;-70
2021/10/25 13:27:53;;;;;;;0.40;0.30;;;20.70;71.10;;;;;;5091932;28;20385;-71
2021/10/25 13:30:21;;;;;;;0.40;0.20;;;20.70;73.40;;;;;;5092602;28;20880;-71
2021/10/25 13:32:47;;;;;;;0.40;0.30;;;20.50;73.60;;;;;;5091810;28;20751;-70
2021/10/25 13:35:15;;;;;;;0.40;0.20;;;20.40;72.60;;;;;;5091748;28;20439;-70
2021/10/25 13:37:45;;;;;;;0.40;0.30;;;20.90;72.00;;;;;;5091740;28;20374;-71
2021/10/25 13:40:12;;;;;;;0.40;0.20;;;20.70;72.50;;;;;;5091089;28;20400;-71
2021/10/25 13:42:39;;;;;;;0.40;0.20;;;21.10;71.40;;;;;;5091519;28;20784;-71
2021/10/25 13:45:06;;;;;;;0.40;0.30;;;21.30;70.60;;;;;;5092499;28;20405;-70
2021/10/25 13:47:32;;;;;;;0.40;0.30;;;21.50;69.00;;;;;;5092272;28;20842;-72
2021/10/25 13:49:58;;;;;;;0.40;0.20;;;20.50;71.20;;;;;;5091871;28;20438;-71
2021/10/25 13:52:24;;;;;;;3.70;0.70;;;20.60;70.30;;;;;;5091870;28;20394;-70
2021/10/25 13:54:50;;;;;;;0.40;0.20;;;20.50;70.90;;;;;;5091355;28;20375;-71
2021/10/25 13:57:22;;;;;;;0.40;0.30;;;20.90;72.00;;;;;;5092008;28;20873;-71
2021/10/25 13:59:51;;;;;;;0.40;0.20;;;21.10;75.00;;;;;;5090352;28;20390;-70
2021/10/25 14:02:19;;;;;;;0.40;0.20;;;21.00;73.00;;;;;;5091827;28;20362;-70
2021/10/25 14:04:50;;;;;;;0.40;0.30;;;21.00;72.10;;;;;;5085671;28;20476;-71
2021/10/25 14:07:21;;;;;;;0.60;0.40;;;21.00;71.60;;;;;;5088111;28;20448;-70
2021/10/25 14:10:03;;;;;;;0.80;0.45;;;20.80;72.30;;;;;;5084596;28;20390;-70
2021/10/25 14:12:30;;;;;;;0.40;0.30;;;20.60;70.30;;;;;;5084675;28;20406;-71
2021/10/25 14:15:05;;;;;;;0.40;0.20;;;20.50;74.60;;;;;;5087476;28;20397;-71
2021/10/25 14:17:31;;;;;;;0.40;0.30;;;20.70;73.80;;;;;;5087833;28;20425;-72
2021/10/25 14:19:56;;;;;;;0.40;0.20;;;20.10;75.20;;;;;;5087341;28;20412;-71
2021/10/25 14:22:22;;;;;;;0.40;0.20;;;20.20;75.40;;;;;;5087201;28;20862;-71
2021/10/25 14:24:49;;;;;;;0.40;0.20;;;20.20;72.60;;;;;;5087941;28;20423;-70
2021/10/25 14:27:15;;;;;;;0.40;0.20;;;19.90;73.50;;;;;;5088446;28;20386;-71
2021/10/25 14:29:41;;;;;;;0.40;0.20;;;19.60;76.00;;;;;;5087320;28;20394;-70
2021/10/25 14:32:09;;;;;;;0.40;0.20;;;19.90;74.50;;;;;;5088580;28;20391;-71
2021/10/25 14:34:35;;;;;;;0.40;0.20;;;19.90;75.90;;;;;;5087745;28;20397;-72
2021/10/25 14:37:06;;;;;;;0.40;0.20;;;19.90;73.10;;;;;;5087869;28;20382;-71
2021/10/25 14:39:40;;;;;;;0.40;0.20;;;20.10;73.40;;;;;;5087724;28;20378;-71
2021/10/25 14:42:22;;;;;;;0.40;0.20;;;20.50;73.60;;;;;;5074253;28;20385;-73
2021/10/25 14:45:05;;;;;;;0.40;0.20;;;20.80;72.30;;;;;;5051293;28;20406;-72
2021/10/25 14:55:40;;;;;;;0.40;0.20;;;21.70;71.00;;;;;;5089277;28;20376;-68
2021/10/25 14:58:06;;;;;;;0.50;0.40;;;21.80;69.60;;;;;;5085359;28;20382;-70